KCCY/CCY METAR and TAF weather

Enter ICAO airport designator
Station Type Date Time Source
KCCY METAR 2022/11/26 09:55 UTC NOAA

KCCY 260955Z AUTO 20011KT 10SM CLR 00/M02 A2999 RMK AO2


Station Type Date Time Source
KCCY Decoded METAR 2022/11/26 09:55 UTC NOAA

Charles City, IA, United States (KCCY) 43-04N 092-37W
Nov 26, 2022 - 04:55 AM EST / 2022.11.26 0955 UTC
Wind: from the SSW (200 degrees) at 13 MPH (11 KT):0
Visibility: 10 mile(s):0
Sky conditions: clear
Temperature: 32 F (0 C)
Windchill: 23 F (-5 C):1
Dew Point: 28 F (-2 C)
Relative Humidity: 86%
Pressure (altimeter): 29.99 in. Hg (1015 hPa)
ob: KCCY 260955Z AUTO 20011KT 10SM CLR 00/M02 A2999 RMK AO2
cycle: 10

Station Type Date Time Source
KCCY TAF UTC NOAA

Error!

Example: see airport list